Time;durP1;ratioP1;P1;durP2;ratioP2;P2;SDS_P1;SDS_P2;PMS_P1;PMS_P2;Temp;Humidity;BMP_temperature;BMP_pressure;BME280_temperature;BME280_humidity;BME280_pressure;Samples;Min_cycle;Max_cycle;Signal;HPM_P1;HPM_P2
2024/01/22 00:01:44;;;;;;;1.42;0.63;;;14.40;47.60;;;;;;5149380;27;45306;-49
2024/01/22 00:04:11;;;;;;;0.82;0.43;;;14.40;47.70;;;;;;5151526;27;45178;-49
2024/01/22 00:06:40;;;;;;;1.45;0.70;;;14.40;47.70;;;;;;5151119;27;45416;-49
2024/01/22 00:09:07;;;;;;;0.68;0.40;;;14.40;47.70;;;;;;5150827;27;45263;-49
2024/01/22 00:11:34;;;;;;;0.70;0.50;;;14.40;47.70;;;;;;5150700;27;45111;-49
2024/01/22 00:14:00;;;;;;;1.10;0.63;;;14.40;48.30;;;;;;5152845;27;48225;-49
2024/01/22 00:16:27;;;;;;;0.90;0.50;;;14.30;48.60;;;;;;5150891;27;44678;-49
2024/01/22 00:18:56;;;;;;;0.50;0.40;;;14.30;48.60;;;;;;5148805;27;45223;-49
2024/01/22 00:21:22;;;;;;;0.65;0.50;;;14.30;48.60;;;;;;5152872;27;45603;-49
2024/01/22 00:23:49;;;;;;;0.88;0.43;;;14.30;48.60;;;;;;5148989;27;46949;-49
2024/01/22 00:26:16;;;;;;;0.85;0.52;;;14.30;48.60;;;;;;5149341;27;45429;-49
2024/01/22 00:28:43;;;;;;;0.95;0.40;;;14.30;48.60;;;;;;5150162;27;45144;-49
2024/01/22 00:31:10;;;;;;;0.70;0.60;;;14.30;48.60;;;;;;5152790;27;44766;-49
2024/01/22 00:33:36;;;;;;;1.92;0.43;;;14.30;48.60;;;;;;5149476;27;46232;-49
2024/01/22 00:36:05;;;;;;;0.52;0.40;;;14.30;48.60;;;;;;5150353;27;45186;-49
2024/01/22 00:38:31;;;;;;;0.95;0.40;;;14.30;48.60;;;;;;5148825;27;46033;-49
2024/01/22 00:40:58;;;;;;;1.02;0.60;;;14.30;48.60;;;;;;5149477;27;45381;-49
2024/01/22 00:43:25;;;;;;;1.67;0.50;;;14.30;48.60;;;;;;5155527;27;46944;-49
2024/01/22 00:45:52;;;;;;;1.00;0.45;;;14.40;48.70;;;;;;5150304;27;45414;-49
2024/01/22 00:48:18;;;;;;;1.20;0.40;;;14.40;48.70;;;;;;5154201;27;45340;-49
2024/01/22 00:50:45;;;;;;;0.50;0.50;;;14.40;49.50;;;;;;5149944;27;44730;-49
2024/01/22 00:53:13;;;;;;;0.43;0.40;;;14.40;48.30;;;;;;5153154;27;46302;-49
2024/01/22 00:55:40;;;;;;;0.73;0.40;;;14.50;48.10;;;;;;5152294;27;45402;-49
2024/01/22 00:58:07;;;;;;;1.15;0.50;;;14.50;48.10;;;;;;5151011;27;45176;-49
2024/01/22 01:00:33;;;;;;;1.13;0.60;;;14.50;47.90;;;;;;5153195;27;45263;-49
2024/01/22 01:03:00;;;;;;;0.90;0.65;;;14.50;48.80;;;;;;5152522;27;46522;-49
2024/01/22 01:05:27;;;;;;;1.08;0.60;;;14.40;48.70;;;;;;5156314;27;45420;-49
2024/01/22 01:07:54;;;;;;;1.27;0.52;;;14.40;48.70;;;;;;5152566;27;45477;-49
2024/01/22 01:10:22;;;;;;;0.75;0.47;;;14.30;48.60;;;;;;5153417;27;45218;-49
2024/01/22 01:12:49;;;;;;;1.08;0.55;;;14.30;48.60;;;;;;5152970;27;45505;-49
2024/01/22 01:15:16;;;;;;;0.65;0.38;;;14.40;48.70;;;;;;5155444;27;45110;-49
2024/01/22 01:17:43;;;;;;;0.57;0.38;;;14.30;48.60;;;;;;5153244;27;45108;-49
2024/01/22 01:20:11;;;;;;;0.63;0.50;;;14.30;48.60;;;;;;5152350;27;45230;-49
2024/01/22 01:22:38;;;;;;;1.77;0.50;;;14.30;48.60;;;;;;5153373;27;47315;-49
2024/01/22 01:25:05;;;;;;;1.23;0.70;;;14.30;48.60;;;;;;5152088;27;45646;-49
2024/01/22 01:27:33;;;;;;;0.73;0.50;;;14.30;48.60;;;;;;5155947;27;45277;-49
2024/01/22 01:30:00;;;;;;;0.40;0.30;;;14.30;48.60;;;;;;5150906;27;45481;-49
2024/01/22 01:32:27;;;;;;;1.52;0.50;;;14.40;48.70;;;;;;5155327;27;46986;-49
2024/01/22 01:34:53;;;;;;;0.82;0.57;;;14.40;48.70;;;;;;5154199;27;45300;-49
2024/01/22 01:37:20;;;;;;;1.17;0.50;;;14.40;48.70;;;;;;5154308;27;45219;-49
2024/01/22 01:39:47;;;;;;;1.30;0.47;;;14.40;48.50;;;;;;5150162;27;45249;-49
2024/01/22 01:42:13;;;;;;;0.45;0.40;;;14.40;48.10;;;;;;5155961;27;45526;-49
2024/01/22 01:44:50;;;;;;;2.00;0.70;;;14.40;48.20;;;;;;5153530;27;46109;-49
2024/01/22 01:47:17;;;;;;;1.17;0.50;;;14.40;47.90;;;;;;5156171;27;45180;-49
2024/01/22 01:49:46;;;;;;;2.15;0.40;;;14.40;48.10;;;;;;5155109;27;44830;-49
2024/01/22 01:52:14;;;;;;;2.03;0.52;;;14.40;48.20;;;;;;5153789;27;46529;-49
2024/01/22 01:54:45;;;;;;;0.40;0.40;;;14.40;48.80;;;;;;5152667;27;45154;-49
2024/01/22 01:57:12;;;;;;;0.50;0.38;;;14.40;48.70;;;;;;5151242;27;45448;-49
2024/01/22 01:59:42;;;;;;;0.77;0.40;;;14.30;48.60;;;;;;5151909;27;45242;-49
2024/01/22 02:02:10;;;;;;;1.20;0.57;;;14.30;48.60;;;;;;5154092;27;46557;-49
2024/01/22 02:04:37;;;;;;;0.40;0.40;;;14.30;48.60;;;;;;5154609;27;45117;-49
2024/01/22 02:07:05;;;;;;;0.47;0.35;;;14.30;48.60;;;;;;5155558;27;46140;-49
2024/01/22 02:09:48;;;;;;;0.52;0.52;;;14.20;48.50;;;;;;5152798;27;45210;-49
2024/01/22 02:12:17;;;;;;;1.17;0.52;;;14.30;48.60;;;;;;5151342;27;45226;-49
2024/01/22 02:14:44;;;;;;;1.17;0.50;;;14.20;48.50;;;;;;5153602;27;45310;-49
2024/01/22 02:17:12;;;;;;;1.17;0.52;;;14.30;48.60;;;;;;5150354;27;45203;-49
2024/01/22 02:19:38;;;;;;;1.50;0.52;;;14.30;48.60;;;;;;5157930;27;45084;-49
2024/01/22 02:22:05;;;;;;;1.35;0.40;;;14.30;48.60;;;;;;5150588;27;46344;-49
2024/01/22 02:24:33;;;;;;;0.50;0.40;;;14.30;48.60;;;;;;5151513;27;45444;-49
2024/01/22 02:27:00;;;;;;;1.27;0.55;;;14.30;48.60;;;;;;5150340;27;45178;-49
2024/01/22 02:29:27;;;;;;;0.80;0.55;;;14.40;48.60;;;;;;5151612;27;45087;-49
2024/01/22 02:31:55;;;;;;;1.00;0.40;;;14.40;48.20;;;;;;5150963;27;46259;-49
2024/01/22 02:34:22;;;;;;;2.13;0.60;;;14.40;48.20;;;;;;5150159;27;45331;-49
2024/01/22 02:36:49;;;;;;;0.45;0.40;;;14.40;48.00;;;;;;5150702;27;45252;-49
2024/01/22 02:39:16;;;;;;;1.08;0.60;;;14.40;47.90;;;;;;5147799;27;45183;-50
2024/01/22 02:41:44;;;;;;;0.70;0.40;;;14.40;48.10;;;;;;5154408;27;45365;-49
2024/01/22 02:44:11;;;;;;;0.85;0.60;;;14.40;48.70;;;;;;5152818;27;45401;-49
2024/01/22 02:46:37;;;;;;;2.20;0.60;;;14.30;48.60;;;;;;5153312;27;45649;-49
2024/01/22 02:49:04;;;;;;;0.80;0.47;;;14.30;48.60;;;;;;5150492;27;45304;-49
2024/01/22 02:51:31;;;;;;;1.25;0.50;;;14.20;48.50;;;;;;5152860;27;47847;-49
2024/01/22 02:53:58;;;;;;;0.85;0.50;;;14.20;48.50;;;;;;5148327;27;45094;-49
2024/01/22 02:56:25;;;;;;;0.43;0.35;;;14.20;48.50;;;;;;5152660;27;45416;-49
2024/01/22 02:58:53;;;;;;;0.95;0.40;;;14.20;48.50;;;;;;5154257;27;45180;-49
2024/01/22 03:01:20;;;;;;;0.55;0.40;;;14.20;48.60;;;;;;5149912;27;45121;-49
2024/01/22 03:03:47;;;;;;;0.95;0.50;;;14.20;48.70;;;;;;5152244;27;45185;-49
2024/01/22 03:06:14;;;;;;;0.35;0.30;;;14.20;48.70;;;;;;5153701;27;45395;-49
2024/01/22 03:08:40;;;;;;;0.75;0.40;;;14.20;49.30;;;;;;5151321;27;45263;-49
2024/01/22 03:11:08;;;;;;;3.05;0.40;;;14.20;49.20;;;;;;5155216;27;45319;-49
2024/01/22 03:13:35;;;;;;;0.43;0.43;;;14.20;49.50;;;;;;5151655;27;45281;-49
2024/01/22 03:16:03;;;;;;;0.70;0.30;;;14.30;49.20;;;;;;5152846;27;45249;-49
2024/01/22 03:18:30;;;;;;;0.70;0.40;;;14.30;49.20;;;;;;5150286;27;45281;-50
2024/01/22 03:20:57;;;;;;;1.67;0.40;;;14.40;48.80;;;;;;5153419;27;47022;-49
2024/01/22 03:23:24;;;;;;;0.65;0.43;;;14.40;49.00;;;;;;5147196;27;45400;-49
2024/01/22 03:25:50;;;;;;;0.30;0.20;;;14.40;48.70;;;;;;5151742;27;45166;-49
2024/01/22 03:28:17;;;;;;;0.47;0.30;;;14.40;49.20;;;;;;5149286;27;45584;-49
2024/01/22 03:30:44;;;;;;;0.80;0.40;;;14.40;49.30;;;;;;5151196;27;46538;-49
2024/01/22 03:33:12;;;;;;;1.23;0.30;;;14.40;49.90;;;;;;5150885;27;45420;-49
2024/01/22 03:35:39;;;;;;;0.57;0.30;;;14.40;50.20;;;;;;5149722;27;45259;-49
2024/01/22 03:38:05;;;;;;;0.50;0.20;;;14.30;50.00;;;;;;5149937;27;45335;-50
2024/01/22 03:40:32;;;;;;;1.05;0.40;;;14.30;50.30;;;;;;5147772;27;45108;-50
2024/01/22 03:42:59;;;;;;;0.35;0.30;;;14.30;50.60;;;;;;5151627;27;45154;-50
2024/01/22 03:45:26;;;;;;;0.40;0.32;;;14.30;50.70;;;;;;5150568;27;45418;-49
2024/01/22 03:47:52;;;;;;;0.75;0.40;;;14.20;50.80;;;;;;5147366;27;45339;-50
2024/01/22 03:50:21;;;;;;;0.45;0.30;;;14.30;51.50;;;;;;5153397;27;45201;-49
2024/01/22 03:52:47;;;;;;;0.47;0.25;;;14.30;51.50;;;;;;5151056;27;45177;-49
2024/01/22 03:55:14;;;;;;;1.48;0.50;;;14.30;51.40;;;;;;5149333;27;45209;-50
2024/01/22 03:57:41;;;;;;;0.20;0.20;;;14.30;52.00;;;;;;5148838;27;45234;-50
2024/01/22 04:00:09;;;;;;;0.93;0.40;;;14.30;52.00;;;;;;5151116;27;46534;-50
2024/01/22 04:02:35;;;;;;;0.80;0.40;;;14.30;52.40;;;;;;5148717;27;45151;-49
2024/01/22 04:05:02;;;;;;;0.47;0.30;;;14.30;52.40;;;;;;5151504;27;44648;-49
2024/01/22 04:07:30;;;;;;;0.47;0.30;;;14.40;52.40;;;;;;5148290;27;45152;-50
2024/01/22 04:09:57;;;;;;;1.83;0.20;;;14.40;52.00;;;;;;5149675;27;48370;-50
2024/01/22 04:12:24;;;;;;;0.35;0.28;;;14.40;51.90;;;;;;5150666;27;45215;-49
2024/01/22 04:14:50;;;;;;;0.20;0.13;;;14.40;52.30;;;;;;5150352;27;44622;-49
2024/01/22 04:17:17;;;;;;;0.50;0.30;;;14.50;52.30;;;;;;5148964;27;45100;-50
2024/01/22 04:19:44;;;;;;;0.20;0.20;;;14.50;52.30;;;;;;5145784;27;45184;-50
2024/01/22 04:22:11;;;;;;;0.20;0.20;;;14.50;52.30;;;;;;5151021;27;45164;-50
2024/01/22 04:24:39;;;;;;;0.55;0.30;;;14.40;52.70;;;;;;5150139;27;45147;-50
2024/01/22 04:27:06;;;;;;;0.25;0.25;;;14.40;52.30;;;;;;5151426;27;45331;-49
2024/01/22 04:29:34;;;;;;;0.60;0.40;;;14.30;53.00;;;;;;5150535;27;47612;-49
2024/01/22 04:32:01;;;;;;;0.82;0.15;;;14.30;53.30;;;;;;5151859;27;45430;-50
2024/01/22 04:34:28;;;;;;;1.25;0.20;;;14.30;53.30;;;;;;5151220;27;45164;-50
2024/01/22 04:36:54;;;;;;;1.10;0.30;;;14.30;53.60;;;;;;5151912;27;45354;-49
2024/01/22 04:39:22;;;;;;;0.88;0.30;;;14.30;53.60;;;;;;5154715;27;45267;-50
2024/01/22 04:41:50;;;;;;;0.30;0.30;;;14.30;53.60;;;;;;5153575;27;45245;-49
2024/01/22 04:44:17;;;;;;;0.70;0.40;;;14.30;53.70;;;;;;5154091;27;45266;-50
2024/01/22 04:46:44;;;;;;;0.20;0.20;;;14.30;53.70;;;;;;5152296;27;45354;-49
2024/01/22 04:49:11;;;;;;;1.05;0.32;;;14.30;54.00;;;;;;5155134;27;45397;-49
2024/01/22 04:51:37;;;;;;;0.60;0.20;;;14.30;53.70;;;;;;5153350;27;45178;-49
2024/01/22 04:54:03;;;;;;;0.70;0.32;;;14.40;54.20;;;;;;5146923;27;45191;-49
2024/01/22 04:56:30;;;;;;;0.30;0.22;;;14.40;54.20;;;;;;5154741;27;45075;-49
2024/01/22 04:58:58;;;;;;;0.52;0.30;;;14.40;54.30;;;;;;5152899;27;45462;-49
2024/01/22 05:01:25;;;;;;;0.95;0.40;;;14.30;54.50;;;;;;5149956;27;45138;-49
2024/01/22 05:03:51;;;;;;;0.25;0.20;;;14.30;55.00;;;;;;5150596;27;45185;-49
2024/01/22 05:06:18;;;;;;;0.52;0.22;;;14.30;54.80;;;;;;5151242;27;45309;-49
2024/01/22 05:08:45;;;;;;;1.40;0.52;;;14.30;54.50;;;;;;5150950;27;45212;-49
2024/01/22 05:11:12;;;;;;;0.38;0.22;;;14.30;54.50;;;;;;5153478;27;45211;-49
2024/01/22 05:13:47;;;;;;;0.25;0.25;;;14.30;54.40;;;;;;5151213;27;45390;-49
2024/01/22 05:16:15;;;;;;;0.85;0.30;;;14.30;55.00;;;;;;5152059;27;44740;-49
2024/01/22 05:18:42;;;;;;;0.63;0.30;;;14.40;54.70;;;;;;5152356;27;45277;-49
2024/01/22 05:21:09;;;;;;;0.80;0.20;;;14.40;54.50;;;;;;5152845;27;45302;-49
2024/01/22 05:23:36;;;;;;;0.35;0.20;;;14.40;54.40;;;;;;5147416;27;44802;-49
2024/01/22 05:26:03;;;;;;;0.30;0.30;;;14.40;53.70;;;;;;5152346;27;45464;-49
2024/01/22 05:28:29;;;;;;;1.58;0.32;;;14.50;53.60;;;;;;5154956;27;47434;-49
2024/01/22 05:30:56;;;;;;;0.30;0.20;;;14.50;53.50;;;;;;5152489;27;45117;-50
2024/01/22 05:33:24;;;;;;;0.95;0.30;;;14.50;53.70;;;;;;5150951;27;45243;-49
2024/01/22 05:35:51;;;;;;;1.20;0.30;;;14.50;53.90;;;;;;5154262;27;45443;-49
2024/01/22 05:38:18;;;;;;;0.63;0.20;;;14.50;54.30;;;;;;5148739;27;46685;-50
2024/01/22 05:40:45;;;;;;;0.32;0.28;;;14.60;54.50;;;;;;5151459;27;45522;-50
2024/01/22 05:43:11;;;;;;;0.20;0.20;;;14.60;54.90;;;;;;5151161;27;45284;-50
2024/01/22 05:45:38;;;;;;;0.30;0.30;;;14.60;56.90;;;;;;5153008;27;45329;-50
2024/01/22 05:48:07;;;;;;;1.20;0.40;;;14.60;57.70;;;;;;5148054;27;45128;-50
2024/01/22 05:50:35;;;;;;;0.28;0.25;;;14.60;58.10;;;;;;5154168;27;44793;-49
2024/01/22 05:53:02;;;;;;;2.25;0.30;;;14.60;57.70;;;;;;5153468;27;45319;-50
2024/01/22 05:55:29;;;;;;;0.32;0.22;;;14.60;57.00;;;;;;5151024;27;44952;-50
2024/01/22 05:57:56;;;;;;;0.55;0.22;;;14.60;56.90;;;;;;5151331;27;45199;-50
2024/01/22 06:00:23;;;;;;;0.45;0.22;;;14.70;56.00;;;;;;5155960;27;45232;-49
2024/01/22 06:02:49;;;;;;;0.90;0.40;;;14.60;57.00;;;;;;5151328;27;45272;-50
2024/01/22 06:05:16;;;;;;;0.32;0.28;;;14.60;57.60;;;;;;5156555;27;44757;-50
2024/01/22 06:07:44;;;;;;;0.43;0.20;;;14.60;57.20;;;;;;5153213;27;47466;-50
2024/01/22 06:10:12;;;;;;;0.80;0.25;;;14.60;57.00;;;;;;5151187;27;45203;-50
2024/01/22 06:12:38;;;;;;;12.85;1.17;;;14.60;57.50;;;;;;5153575;27;45389;-50
2024/01/22 06:15:07;;;;;;;12.48;0.70;;;14.80;54.20;;;;;;5155743;27;45194;-50
2024/01/22 06:17:33;;;;;;;0.40;0.30;;;14.90;50.50;;;;;;5153633;27;45162;-50
2024/01/22 06:20:01;;;;;;;0.65;0.30;;;15.00;49.30;;;;;;5150824;27;45389;-50
2024/01/22 06:22:28;;;;;;;28.02;1.73;;;15.10;48.80;;;;;;5152761;27;45152;-49
2024/01/22 06:24:56;;;;;;;9.13;0.60;;;15.20;52.10;;;;;;5149996;27;44779;-49
2024/01/22 06:27:23;;;;;;;3.40;0.63;;;15.20;48.80;;;;;;5154060;27;46957;-49
2024/01/22 06:29:50;;;;;;;4.38;0.50;;;15.20;48.80;;;;;;5150416;27;44663;-50
2024/01/22 06:32:18;;;;;;;0.93;0.32;;;15.20;51.50;;;;;;5154243;27;45234;-50
2024/01/22 06:34:46;;;;;;;2.15;0.50;;;15.10;54.60;;;;;;5152753;27;45222;-50
2024/01/22 06:37:13;;;;;;;2.50;0.40;;;15.00;56.80;;;;;;5148619;27;46545;-50
2024/01/22 06:39:40;;;;;;;1.65;0.40;;;14.90;57.00;;;;;;5150798;27;45650;-50
2024/01/22 06:42:08;;;;;;;1.65;0.70;;;14.80;57.20;;;;;;5150568;27;45188;-50
2024/01/22 06:44:35;;;;;;;1.20;0.28;;;14.80;57.70;;;;;;5153675;27;45171;-50
2024/01/22 06:47:02;;;;;;;4.68;0.40;;;14.70;57.70;;;;;;5151227;27;47009;-50
2024/01/22 06:49:29;;;;;;;3.42;0.30;;;14.70;57.70;;;;;;5155926;27;44884;-50
2024/01/22 06:51:57;;;;;;;1.00;0.30;;;14.70;58.00;;;;;;5154022;27;45108;-50
2024/01/22 06:54:23;;;;;;;0.50;0.15;;;14.70;58.40;;;;;;5150558;27;45424;-50
2024/01/22 06:56:50;;;;;;;3.40;0.30;;;14.70;58.60;;;;;;5150737;27;45164;-50
2024/01/22 06:59:18;;;;;;;0.30;0.20;;;14.70;58.40;;;;;;5149191;27;45667;-50
2024/01/22 07:01:45;;;;;;;0.40;0.20;;;14.70;58.70;;;;;;5153188;27;45361;-50
2024/01/22 07:04:12;;;;;;;1.08;0.40;;;14.70;58.90;;;;;;5154573;27;45121;-50
2024/01/22 07:06:39;;;;;;;0.17;0.10;;;14.70;58.80;;;;;;5151125;27;46541;-50
2024/01/22 07:09:06;;;;;;;1.77;0.20;;;14.70;58.60;;;;;;5149820;27;45115;-50
2024/01/22 07:11:32;;;;;;;0.55;0.30;;;14.70;58.90;;;;;;5149020;27;45072;-50
2024/01/22 07:13:59;;;;;;;0.85;0.35;;;14.70;58.90;;;;;;5153141;27;45154;-50
2024/01/22 07:16:27;;;;;;;0.40;0.20;;;14.70;59.10;;;;;;5153171;27;45247;-50
2024/01/22 07:18:54;;;;;;;1.80;0.20;;;14.70;59.00;;;;;;5151256;27;45200;-50
2024/01/22 07:21:21;;;;;;;0.60;0.20;;;14.70;58.80;;;;;;5154221;27;45234;-49
2024/01/22 07:23:48;;;;;;;2.08;0.35;;;14.80;58.90;;;;;;5148938;27;45187;-50
2024/01/22 07:26:14;;;;;;;1.75;0.30;;;14.80;58.80;;;;;;5147938;27;45450;-50
2024/01/22 07:28:41;;;;;;;0.77;0.28;;;14.80;58.80;;;;;;5150799;27;45334;-50
2024/01/22 07:31:08;;;;;;;0.43;0.20;;;14.80;59.00;;;;;;5148913;27;45262;-50
2024/01/22 07:33:36;;;;;;;0.38;0.20;;;14.80;58.50;;;;;;5155093;27;45145;-50
2024/01/22 07:36:04;;;;;;;2.20;0.30;;;14.80;58.60;;;;;;5152116;27;45194;-50
2024/01/22 07:38:31;;;;;;;0.57;0.30;;;14.90;58.70;;;;;;5149446;27;45505;-50
2024/01/22 07:40:57;;;;;;;0.68;0.43;;;14.80;58.80;;;;;;5147603;27;45331;-50
2024/01/22 07:43:24;;;;;;;0.80;0.25;;;14.90;58.60;;;;;;5153981;27;45160;-50
2024/01/22 07:45:51;;;;;;;0.45;0.20;;;14.90;59.00;;;;;;5149431;27;45257;-50
2024/01/22 07:48:18;;;;;;;0.55;0.20;;;14.90;58.70;;;;;;5150599;27;44687;-50
2024/01/22 07:50:46;;;;;;;0.20;0.17;;;14.90;58.80;;;;;;5150262;27;44614;-50
2024/01/22 07:53:13;;;;;;;1.33;0.20;;;14.90;58.60;;;;;;5154379;27;45215;-50
2024/01/22 07:55:39;;;;;;;0.13;0.13;;;14.90;58.80;;;;;;5149715;27;46226;-50
2024/01/22 07:58:07;;;;;;;2.03;0.40;;;14.90;58.50;;;;;;5152533;27;45633;-50
2024/01/22 08:00:34;;;;;;;0.55;0.20;;;14.90;59.00;;;;;;5151415;27;45311;-50
2024/01/22 08:03:01;;;;;;;0.63;0.20;;;14.90;58.60;;;;;;5154673;27;45500;-49
2024/01/22 08:05:28;;;;;;;0.52;0.40;;;14.90;58.30;;;;;;5158650;27;47707;-50
2024/01/22 08:07:56;;;;;;;0.43;0.25;;;14.90;58.70;;;;;;5151444;27;45161;-49
2024/01/22 08:10:23;;;;;;;0.38;0.22;;;14.90;58.70;;;;;;5147554;27;45133;-50
2024/01/22 08:12:50;;;;;;;0.60;0.30;;;14.90;59.10;;;;;;5150677;27;45469;-50
2024/01/22 08:15:17;;;;;;;1.45;0.30;;;14.80;59.00;;;;;;5150554;27;46440;-49
2024/01/22 08:17:45;;;;;;;0.45;0.20;;;14.90;59.30;;;;;;5155048;27;45274;-50
2024/01/22 08:20:13;;;;;;;0.68;0.20;;;14.90;59.10;;;;;;5150353;27;45237;-50
2024/01/22 08:22:40;;;;;;;0.80;0.10;;;14.90;59.30;;;;;;5151879;27;45138;-50
2024/01/22 08:25:09;;;;;;;0.20;0.10;;;14.90;59.30;;;;;;5148022;27;45282;-50
2024/01/22 08:27:36;;;;;;;0.10;0.10;;;14.90;59.50;;;;;;5152636;27;45187;-50
2024/01/22 08:30:03;;;;;;;0.40;0.10;;;14.90;59.20;;;;;;5150023;27;45403;-50
2024/01/22 08:32:30;;;;;;;0.75;0.25;;;14.90;59.30;;;;;;5150269;27;45295;-50
2024/01/22 08:34:56;;;;;;;0.30;0.20;;;14.90;59.60;;;;;;5155389;27;44912;-50
2024/01/22 08:37:23;;;;;;;0.43;0.20;;;14.90;59.20;;;;;;5147668;27;45289;-50
2024/01/22 08:39:50;;;;;;;0.88;0.20;;;15.00;58.80;;;;;;5149178;27;45100;-50
2024/01/22 08:42:18;;;;;;;0.28;0.20;;;15.00;58.00;;;;;;5149636;27;45285;-50
2024/01/22 08:44:44;;;;;;;0.43;0.20;;;15.10;57.50;;;;;;5154712;27;45574;-50
2024/01/22 08:47:11;;;;;;;0.93;0.30;;;15.10;57.40;;;;;;5152666;27;45198;-50
2024/01/22 08:49:38;;;;;;;0.25;0.20;;;15.10;57.90;;;;;;5153006;27;45425;-50
2024/01/22 08:52:05;;;;;;;1.45;0.30;;;15.10;57.90;;;;;;5152460;27;45638;-50
2024/01/22 08:54:32;;;;;;;0.13;0.13;;;15.10;57.90;;;;;;5150270;27;46487;-50
2024/01/22 08:56:59;;;;;;;0.60;0.32;;;15.10;58.50;;;;;;5149704;27;45074;-50
2024/01/22 08:59:27;;;;;;;0.45;0.32;;;15.00;58.70;;;;;;5151023;27;45235;-49
2024/01/22 09:01:53;;;;;;;0.10;0.10;;;15.00;59.10;;;;;;5147062;27;45498;-49
2024/01/22 09:04:20;;;;;;;0.32;0.25;;;15.00;60.00;;;;;;5148127;27;46012;-49
2024/01/22 09:06:47;;;;;;;0.40;0.10;;;14.90;60.30;;;;;;5145906;27;45451;-50
2024/01/22 09:09:14;;;;;;;0.20;0.10;;;14.90;60.40;;;;;;5145507;27;44957;-50
2024/01/22 09:11:41;;;;;;;0.40;0.20;;;14.90;60.70;;;;;;5150520;27;46150;-50
2024/01/22 09:14:08;;;;;;;0.55;0.20;;;14.80;61.10;;;;;;5148740;27;46827;-50
2024/01/22 09:16:37;;;;;;;2.40;0.30;;;14.80;61.40;;;;;;5151226;27;45308;-50
2024/01/22 09:19:04;;;;;;;1.45;0.30;;;14.70;61.50;;;;;;5148956;27;45278;-50
2024/01/22 09:21:31;;;;;;;2.20;0.57;;;14.80;61.60;;;;;;5152194;27;46289;-50
2024/01/22 09:23:58;;;;;;;0.60;0.40;;;14.80;61.10;;;;;;5151965;27;45402;-50
2024/01/22 09:26:25;;;;;;;1.38;0.45;;;14.90;60.90;;;;;;5155493;27;45200;-49
2024/01/22 09:28:51;;;;;;;2.20;0.43;;;14.90;60.70;;;;;;5155387;27;45219;-50
2024/01/22 09:31:18;;;;;;;1.77;0.40;;;14.90;60.90;;;;;;5151176;27;45313;-50
2024/01/22 09:33:50;;;;;;;1.17;0.30;;;14.80;61.00;;;;;;5153520;27;46337;-50
2024/01/22 09:36:17;;;;;;;2.38;0.40;;;14.80;60.90;;;;;;5152937;27;45591;-50
2024/01/22 09:38:43;;;;;;;0.50;0.32;;;14.80;60.70;;;;;;5154534;27;45234;-50
2024/01/22 09:41:11;;;;;;;0.32;0.22;;;14.80;60.90;;;;;;5152065;27;45304;-50
2024/01/22 09:43:40;;;;;;;0.50;0.30;;;14.80;61.10;;;;;;5153585;27;47611;-50
2024/01/22 09:46:08;;;;;;;0.98;0.47;;;14.80;61.00;;;;;;5152431;27;45196;-50
2024/01/22 09:48:35;;;;;;;1.40;0.43;;;14.80;60.80;;;;;;5151971;27;45223;-50
2024/01/22 09:51:06;;;;;;;1.23;0.50;;;14.80;61.00;;;;;;5156923;27;45452;-50
2024/01/22 09:53:35;;;;;;;0.22;0.20;;;14.80;61.20;;;;;;5150548;27;45484;-50
2024/01/22 09:56:05;;;;;;;0.98;0.40;;;14.80;61.20;;;;;;5153154;27;45439;-50
2024/01/22 09:58:38;;;;;;;0.80;0.38;;;14.90;61.30;;;;;;5154276;27;44693;-50
2024/01/22 10:01:08;;;;;;;0.52;0.30;;;14.80;61.20;;;;;;5152656;27;45289;-50
2024/01/22 10:03:36;;;;;;;2.03;0.30;;;14.90;61.10;;;;;;5151011;27;45232;-50
2024/01/22 10:06:05;;;;;;;1.48;0.30;;;14.90;61.00;;;;;;5156492;27;45283;-50
2024/01/22 10:08:32;;;;;;;1.33;0.30;;;14.90;61.20;;;;;;5153344;27;45163;-50
2024/01/22 10:10:59;;;;;;;2.05;0.57;;;14.90;60.80;;;;;;5152273;27;44741;-50
2024/01/22 10:13:25;;;;;;;1.33;0.50;;;15.00;61.10;;;;;;5155049;27;46302;-50
2024/01/22 10:15:52;;;;;;;1.15;0.40;;;14.90;61.10;;;;;;5153506;27;45164;-50
2024/01/22 10:18:19;;;;;;;1.00;0.30;;;15.00;61.10;;;;;;5154180;27;45169;-50
2024/01/22 10:20:49;;;;;;;0.65;0.30;;;14.90;60.90;;;;;;5152197;27;44893;-50
2024/01/22 10:23:18;;;;;;;1.45;0.38;;;14.90;61.20;;;;;;5150728;27;45616;-50
2024/01/22 10:25:44;;;;;;;2.13;0.40;;;14.90;61.20;;;;;;5155283;27;45263;-50
2024/01/22 10:28:14;;;;;;;1.25;0.47;;;14.90;60.80;;;;;;5151451;27;45423;-49
2024/01/22 10:30:41;;;;;;;1.65;0.55;;;14.90;61.30;;;;;;5155821;27;45310;-50
2024/01/22 10:33:15;;;;;;;1.17;0.40;;;14.90;61.30;;;;;;5153317;27;45721;-50
2024/01/22 10:35:43;;;;;;;0.52;0.20;;;14.90;61.50;;;;;;5153235;27;45211;-50
2024/01/22 10:38:12;;;;;;;0.93;0.47;;;14.90;61.20;;;;;;5147891;27;45291;-50
2024/01/22 10:40:41;;;;;;;2.17;0.50;;;14.90;61.50;;;;;;5154698;27;45299;-50
2024/01/22 10:43:26;;;;;;;0.88;0.30;;;14.90;61.80;;;;;;5155649;27;45183;-50
2024/01/22 10:45:54;;;;;;;1.05;0.30;;;14.90;62.90;;;;;;5157621;27;45182;-50
2024/01/22 10:48:24;;;;;;;0.90;0.20;;;14.90;62.10;;;;;;5151765;27;45418;-50
2024/01/22 10:50:51;;;;;;;0.93;0.45;;;14.90;61.80;;;;;;5151732;27;45195;-50
2024/01/22 10:53:19;;;;;;;1.90;0.45;;;14.90;62.00;;;;;;5151644;27;45426;-50
2024/01/22 10:55:58;;;;;;;1.08;0.45;;;14.90;62.00;;;;;;5152478;27;45160;-50
2024/01/22 10:58:28;;;;;;;3.20;0.73;;;15.00;62.10;;;;;;5156521;27;45219;-50
2024/01/22 11:00:58;;;;;;;0.77;0.45;;;14.90;62.10;;;;;;5152428;27;45689;-50
2024/01/22 11:03:27;;;;;;;2.72;0.65;;;14.90;61.40;;;;;;5151246;27;46409;-50
2024/01/22 11:05:57;;;;;;;0.80;0.43;;;15.00;61.90;;;;;;5153687;27;45755;-50
2024/01/22 11:08:27;;;;;;;2.15;0.50;;;15.00;62.10;;;;;;5150605;27;45151;-49
2024/01/22 11:10:56;;;;;;;0.28;0.13;;;15.00;62.20;;;;;;5154908;27;45522;-50
2024/01/22 11:13:23;;;;;;;1.77;0.40;;;14.90;63.60;;;;;;5150890;27;48778;-49
2024/01/22 11:15:50;;;;;;;0.40;0.25;;;14.90;62.20;;;;;;5152931;27;45171;-49
2024/01/22 11:18:17;;;;;;;1.02;0.30;;;14.90;62.80;;;;;;5154322;27;44751;-50
2024/01/22 11:20:44;;;;;;;1.05;0.30;;;14.90;62.80;;;;;;5153064;27;44697;-49
2024/01/22 11:23:16;;;;;;;0.80;0.22;;;14.90;62.60;;;;;;5148681;27;48094;-50
2024/01/22 11:25:43;;;;;;;1.70;0.40;;;14.90;62.90;;;;;;5151458;27;45170;-50
2024/01/22 11:28:15;;;;;;;0.82;0.43;;;14.90;62.80;;;;;;5149012;27;45138;-50
2024/01/22 11:30:44;;;;;;;0.40;0.25;;;14.90;62.80;;;;;;5149261;27;45221;-50
2024/01/22 11:33:32;;;;;;;0.28;0.20;;;15.00;62.60;;;;;;5147205;27;45264;-49
2024/01/22 11:35:59;;;;;;;0.28;0.20;;;15.00;62.70;;;;;;5152851;27;45435;-50
2024/01/22 11:38:54;;;;;;;0.85;0.30;;;15.00;62.70;;;;;;5150000;27;45156;-49
2024/01/22 11:41:32;;;;;;;0.50;0.20;;;15.00;62.60;;;;;;5152668;27;44702;-50
2024/01/22 11:44:01;;;;;;;1.15;0.40;;;15.00;62.60;;;;;;5155890;27;47485;-49
2024/01/22 11:46:27;;;;;;;0.40;0.40;;;15.00;62.10;;;;;;5148753;27;45370;-50
2024/01/22 11:48:55;;;;;;;1.40;0.30;;;15.00;61.90;;;;;;5155457;27;45322;-50
2024/01/22 11:51:26;;;;;;;1.77;0.40;;;15.00;62.30;;;;;;5152790;27;44834;-50
2024/01/22 11:53:54;;;;;;;0.75;0.20;;;15.00;62.80;;;;;;5153599;27;46574;-49
2024/01/22 11:56:22;;;;;;;0.82;0.30;;;15.00;62.90;;;;;;5149526;27;46406;-49
2024/01/22 11:58:51;;;;;;;1.42;0.40;;;15.00;62.90;;;;;;5152376;27;45154;-50
2024/01/22 12:01:20;;;;;;;1.35;0.45;;;15.00;63.00;;;;;;5153487;27;44744;-50
2024/01/22 12:03:47;;;;;;;1.83;0.30;;;15.00;63.60;;;;;;5148753;27;46525;-50
2024/01/22 12:06:14;;;;;;;0.73;0.38;;;14.90;63.80;;;;;;5150375;27;45207;-50
2024/01/22 12:08:41;;;;;;;0.88;0.30;;;14.90;65.20;;;;;;5151338;27;45275;-50
2024/01/22 12:11:15;;;;;;;1.48;0.40;;;14.90;64.20;;;;;;5151306;27;45121;-50
2024/01/22 12:13:43;;;;;;;0.70;0.38;;;14.90;65.00;;;;;;5154083;27;45389;-50
2024/01/22 12:16:14;;;;;;;1.13;0.50;;;14.90;65.00;;;;;;5152860;27;45275;-50
2024/01/22 12:18:42;;;;;;;2.25;0.60;;;14.90;65.30;;;;;;5151349;27;45235;-50
2024/01/22 12:21:11;;;;;;;1.25;0.45;;;14.90;65.60;;;;;;5150573;27;45160;-50
2024/01/22 12:23:38;;;;;;;2.00;0.40;;;14.90;65.40;;;;;;5148619;27;45242;-50
2024/01/22 12:26:12;;;;;;;2.10;0.35;;;14.90;65.60;;;;;;5154127;27;45258;-50
2024/01/22 12:28:39;;;;;;;0.85;0.38;;;14.90;66.10;;;;;;5146637;27;44933;-49
2024/01/22 12:31:06;;;;;;;1.25;0.40;;;14.90;65.60;;;;;;5151210;27;45273;-49
2024/01/22 12:33:34;;;;;;;1.83;0.45;;;15.00;65.80;;;;;;5151344;27;45355;-50
2024/01/22 12:36:09;;;;;;;2.22;0.70;;;14.90;65.40;;;;;;5148579;27;44988;-50
2024/01/22 12:38:38;;;;;;;1.90;0.70;;;14.90;65.20;;;;;;5152158;27;45096;-49
2024/01/22 12:41:08;;;;;;;2.78;0.50;;;14.90;65.00;;;;;;5150710;27;45464;-49
2024/01/22 12:43:36;;;;;;;1.98;0.60;;;15.00;65.20;;;;;;5148012;27;45607;-49
2024/01/22 12:46:08;;;;;;;2.88;0.60;;;15.00;64.70;;;;;;5148330;27;45195;-49
2024/01/22 12:48:35;;;;;;;1.17;0.43;;;15.00;65.20;;;;;;5151603;27;45384;-49